Time;durP1;ratioP1;P1;durP2;ratioP2;P2;SDS_P1;SDS_P2;PMS_P1;PMS_P2;Temp;Humidity;BMP_temperature;BMP_pressure;BME280_temperature;BME280_humidity;BME280_pressure;Samples;Min_cycle;Max_cycle;Signal;HPM_P1;HPM_P2
2023/09/02 00:01:47;;;;;;;2.33;1.02;;;14.20;99.90;;;;;;4413400;32;20142;-74
2023/09/02 00:04:13;;;;;;;1.27;0.93;;;14.10;99.90;;;;;;4412849;32;20102;-74
2023/09/02 00:06:38;;;;;;;2.15;0.65;;;14.10;99.90;;;;;;4411940;32;20143;-73
2023/09/02 00:09:04;;;;;;;0.62;0.62;;;14.00;99.90;;;;;;4412092;32;20112;-74
2023/09/02 00:11:30;;;;;;;0.52;0.52;;;14.00;99.90;;;;;;4412381;32;20112;-74
2023/09/02 00:13:55;;;;;;;0.75;0.65;;;13.90;99.90;;;;;;4414802;32;20057;-74
2023/09/02 00:16:20;;;;;;;0.98;0.98;;;13.90;99.90;;;;;;4413443;32;20077;-74
2023/09/02 00:18:46;;;;;;;1.15;1.05;;;13.80;99.90;;;;;;4415857;32;20073;-74
2023/09/02 00:21:12;;;;;;;2.83;2.05;;;13.80;99.90;;;;;;4411577;32;20084;-74
2023/09/02 00:23:45;;;;;;;13.88;1.30;;;13.80;99.90;;;;;;4413788;32;20065;-74
2023/09/02 00:26:10;;;;;;;0.45;0.45;;;13.80;99.90;;;;;;4413352;32;20129;-74
2023/09/02 00:28:36;;;;;;;1.20;0.80;;;13.90;99.90;;;;;;4417456;32;20094;-73
2023/09/02 00:31:01;;;;;;;2.85;1.42;;;14.00;99.90;;;;;;4418359;32;20085;-73
2023/09/02 00:33:27;;;;;;;1.17;0.85;;;14.00;99.90;;;;;;4420103;32;20088;-73
2023/09/02 00:35:52;;;;;;;0.88;0.80;;;14.10;99.90;;;;;;4420047;32;20089;-73
2023/09/02 00:38:18;;;;;;;4.30;1.80;;;14.20;99.90;;;;;;4416255;32;20655;-72
2023/09/02 00:40:49;;;;;;;1.60;1.37;;;14.20;99.90;;;;;;4413004;32;20085;-73
2023/09/02 00:43:15;;;;;;;2.05;1.33;;;14.30;99.90;;;;;;4412709;32;20093;-73
2023/09/02 00:45:40;;;;;;;1.40;0.70;;;14.30;99.90;;;;;;4416914;32;20089;-73
2023/09/02 00:48:06;;;;;;;6.85;0.90;;;14.30;99.90;;;;;;4413976;32;20086;-73
2023/09/02 00:50:34;;;;;;;1.05;0.95;;;14.10;99.90;;;;;;4419476;32;20474;-73
2023/09/02 00:53:00;;;;;;;2.92;1.12;;;14.10;99.90;;;;;;4420849;32;20101;-73
2023/09/02 00:55:26;;;;;;;0.68;0.68;;;14.20;99.90;;;;;;4421414;32;20088;-73
2023/09/02 00:57:52;;;;;;;0.85;0.77;;;14.20;99.90;;;;;;4420676;32;20073;-73
2023/09/02 01:00:17;;;;;;;0.93;0.65;;;14.10;99.90;;;;;;4418932;32;20468;-74
2023/09/02 01:02:45;;;;;;;0.60;0.57;;;14.10;99.90;;;;;;4414255;32;20284;-73
2023/09/02 01:05:11;;;;;;;0.77;0.77;;;14.10;99.90;;;;;;4419339;32;20627;-74
2023/09/02 01:07:36;;;;;;;0.43;0.43;;;14.00;99.90;;;;;;4419413;32;20078;-74
2023/09/02 01:10:02;;;;;;;1.67;0.90;;;14.10;99.90;;;;;;4420273;32;20590;-73
2023/09/02 01:12:28;;;;;;;1.00;0.95;;;14.10;99.90;;;;;;4420699;32;20139;-74
2023/09/02 01:14:53;;;;;;;5.75;1.17;;;14.00;99.90;;;;;;4422614;32;20098;-73
2023/09/02 01:17:19;;;;;;;1.02;0.93;;;13.90;99.90;;;;;;4420649;32;20097;-73
2023/09/02 01:19:47;;;;;;;0.73;0.73;;;13.80;99.90;;;;;;4420878;32;20171;-73
2023/09/02 01:22:32;;;;;;;0.57;0.57;;;13.70;99.90;;;;;;4419858;32;20089;-73
2023/09/02 01:25:28;;;;;;;3.35;1.05;;;13.70;99.90;;;;;;4419801;32;20105;-73
2023/09/02 01:28:00;;;;;;;5.15;1.15;;;13.60;99.90;;;;;;4406064;32;20097;-73
2023/09/02 01:30:27;;;;;;;2.05;0.93;;;13.50;99.90;;;;;;4418159;32;20101;-73
2023/09/02 01:32:54;;;;;;;11.30;0.80;;;13.60;99.90;;;;;;4416449;32;20073;-73
2023/09/02 01:35:24;;;;;;;1.30;1.20;;;13.60;99.90;;;;;;4418694;32;20101;-73
2023/09/02 01:37:55;;;;;;;0.50;0.50;;;13.60;99.90;;;;;;4419364;32;20061;-74
2023/09/02 01:40:25;;;;;;;;;;;13.60;99.90;;;;;;4419247;32;20101;-74
2023/09/02 01:42:51;;;;;;;2.50;0.90;;;13.60;99.90;;;;;;4418120;32;19964;-73
2023/09/02 01:45:19;;;;;;;0.70;0.70;;;13.70;99.90;;;;;;4418248;32;20066;-74
2023/09/02 01:47:46;;;;;;;1.95;1.62;;;13.70;99.90;;;;;;4422356;32;20057;-74
2023/09/02 01:50:14;;;;;;;0.62;0.60;;;13.70;99.90;;;;;;4423050;32;20127;-74
2023/09/02 01:52:41;;;;;;;0.50;0.50;;;13.70;99.90;;;;;;4419963;32;20918;-73
2023/09/02 01:55:08;;;;;;;0.82;0.82;;;13.70;99.90;;;;;;4421923;32;20093;-73
2023/09/02 01:57:33;;;;;;;1.60;1.15;;;13.60;99.90;;;;;;4421659;32;20077;-74
2023/09/02 01:59:59;;;;;;;0.82;0.70;;;13.60;99.90;;;;;;4420525;32;20089;-73
2023/09/02 02:02:24;;;;;;;3.80;1.15;;;13.50;99.90;;;;;;4420818;32;20058;-73
2023/09/02 02:04:55;;;;;;;0.93;0.93;;;13.50;99.90;;;;;;4422952;32;20933;-73
2023/09/02 02:07:24;;;;;;;0.70;0.65;;;13.50;99.90;;;;;;4423382;32;20128;-73
2023/09/02 02:09:56;;;;;;;0.70;0.65;;;13.40;99.90;;;;;;4421426;32;20068;-73
2023/09/02 02:12:22;;;;;;;0.85;0.82;;;13.40;99.90;;;;;;4421978;32;20073;-73
2023/09/02 02:14:47;;;;;;;3.92;1.23;;;13.40;99.90;;;;;;4419476;32;20093;-73
2023/09/02 02:17:13;;;;;;;0.55;0.55;;;13.40;99.90;;;;;;4421079;32;20777;-74
2023/09/02 02:19:39;;;;;;;1.37;0.80;;;13.40;99.90;;;;;;4423811;32;20082;-73
2023/09/02 02:22:05;;;;;;;2.67;0.88;;;13.40;99.90;;;;;;4424070;32;20113;-73
2023/09/02 02:24:30;;;;;;;0.50;0.50;;;13.40;99.90;;;;;;4423425;32;20077;-73
2023/09/02 02:26:56;;;;;;;2.75;0.98;;;13.50;99.90;;;;;;4423073;32;20062;-72
2023/09/02 02:29:21;;;;;;;2.65;0.73;;;13.50;99.90;;;;;;4424628;32;20093;-73
2023/09/02 02:31:47;;;;;;;2.37;0.82;;;13.40;99.90;;;;;;4424151;32;20109;-74
2023/09/02 02:34:12;;;;;;;10.77;0.88;;;13.30;99.90;;;;;;4424883;32;20085;-73
2023/09/02 02:36:38;;;;;;;0.82;0.60;;;13.20;99.90;;;;;;4426228;32;20088;-73
2023/09/02 02:39:04;;;;;;;0.88;0.60;;;13.30;99.90;;;;;;4424439;32;20077;-73
2023/09/02 02:41:30;;;;;;;5.37;0.82;;;13.20;99.90;;;;;;4422112;32;20140;-73
2023/09/02 02:43:56;;;;;;;0.70;0.70;;;13.30;99.90;;;;;;4421754;32;20109;-74
2023/09/02 02:46:21;;;;;;;0.50;0.50;;;13.40;99.90;;;;;;4422806;32;20477;-74
2023/09/02 02:48:47;;;;;;;0.70;0.70;;;13.40;99.90;;;;;;4414926;32;20156;-74
2023/09/02 02:51:12;;;;;;;3.03;1.00;;;13.40;99.90;;;;;;4413709;32;20078;-74
2023/09/02 02:53:38;;;;;;;0.70;0.70;;;13.40;99.90;;;;;;4415199;32;20154;-74
2023/09/02 02:56:03;;;;;;;14.30;1.02;;;13.40;99.90;;;;;;4414939;32;20058;-74
2023/09/02 02:58:31;;;;;;;1.17;1.02;;;13.40;99.90;;;;;;4420127;32;20066;-73
2023/09/02 03:01:05;;;;;;;1.50;1.20;;;13.40;99.90;;;;;;4423015;32;20098;-74
2023/09/02 03:03:31;;;;;;;0.75;0.62;;;13.30;99.90;;;;;;4426368;32;20102;-74
2023/09/02 03:05:58;;;;;;;5.85;2.62;;;13.10;99.90;;;;;;4424417;32;20144;-73
2023/09/02 03:08:24;;;;;;;0.60;0.60;;;13.00;99.90;;;;;;4424980;32;20160;-73
2023/09/02 03:11:05;;;;;;;0.70;0.70;;;13.00;99.90;;;;;;4422996;32;20117;-73
2023/09/02 03:13:33;;;;;;;0.75;0.75;;;13.00;99.90;;;;;;4411201;32;20099;-74
2023/09/02 03:16:01;;;;;;;0.73;0.73;;;13.00;99.90;;;;;;4423128;32;20068;-73
2023/09/02 03:18:27;;;;;;;1.20;1.08;;;13.10;99.90;;;;;;4423955;32;20106;-73
2023/09/02 03:20:53;;;;;;;1.37;1.27;;;13.10;99.90;;;;;;4424647;32;20082;-73
2023/09/02 03:23:19;;;;;;;2.17;0.93;;;13.20;99.90;;;;;;4423011;32;20138;-73
2023/09/02 03:25:44;;;;;;;3.78;1.10;;;13.40;99.90;;;;;;4423523;32;20069;-74
2023/09/02 03:28:10;;;;;;;0.60;0.60;;;13.40;99.90;;;;;;4425801;32;20073;-74
2023/09/02 03:30:35;;;;;;;0.62;0.62;;;13.50;99.90;;;;;;4424522;32;20074;-74
2023/09/02 03:33:01;;;;;;;0.47;0.47;;;13.40;99.90;;;;;;4425198;32;20111;-73
2023/09/02 03:35:26;;;;;;;0.57;0.57;;;13.30;99.90;;;;;;4424336;32;20105;-73
2023/09/02 03:37:52;;;;;;;1.58;0.85;;;13.30;99.90;;;;;;4424171;32;20100;-74
2023/09/02 03:40:18;;;;;;;0.68;0.60;;;13.40;99.90;;;;;;4424019;32;20082;-73
2023/09/02 03:42:44;;;;;;;0.60;0.60;;;13.30;99.90;;;;;;4425627;32;20066;-73
2023/09/02 03:45:10;;;;;;;0.52;0.52;;;13.30;99.90;;;;;;4424398;32;20231;-73
2023/09/02 03:47:36;;;;;;;3.60;0.98;;;13.30;99.90;;;;;;4423163;32;20077;-73
2023/09/02 03:50:03;;;;;;;1.65;1.35;;;13.20;99.90;;;;;;4428608;32;20089;-74
2023/09/02 03:52:28;;;;;;;0.70;0.70;;;13.40;99.90;;;;;;4432627;32;21150;-73
2023/09/02 03:54:54;;;;;;;0.50;0.50;;;13.30;99.90;;;;;;4431344;32;20081;-73
2023/09/02 03:57:19;;;;;;;3.35;1.00;;;13.20;99.90;;;;;;4429779;32;20061;-74
2023/09/02 03:59:45;;;;;;;0.50;0.50;;;13.20;99.90;;;;;;4421220;32;20112;-74
2023/09/02 04:02:10;;;;;;;0.60;0.60;;;13.20;99.90;;;;;;4422569;32;20521;-74
2023/09/02 04:04:36;;;;;;;0.50;0.50;;;13.10;99.90;;;;;;4418482;32;20092;-74
2023/09/02 04:07:01;;;;;;;0.75;0.73;;;13.00;99.90;;;;;;4421559;32;20096;-72
2023/09/02 04:09:28;;;;;;;0.50;0.50;;;13.00;99.90;;;;;;4432153;32;20090;-74
2023/09/02 04:11:53;;;;;;;1.55;0.98;;;13.00;99.90;;;;;;4430663;32;20088;-73
2023/09/02 04:14:19;;;;;;;0.50;0.50;;;13.10;99.90;;;;;;4433083;32;20073;-73
2023/09/02 04:16:44;;;;;;;1.08;0.80;;;13.10;99.90;;;;;;4431269;32;20085;-73
2023/09/02 04:19:10;;;;;;;0.40;0.40;;;13.00;99.90;;;;;;4423112;32;20093;-74
2023/09/02 04:21:35;;;;;;;2.78;1.45;;;13.00;99.90;;;;;;4420115;32;20492;-74
2023/09/02 04:24:01;;;;;;;0.50;0.50;;;13.00;99.90;;;;;;4420032;32;20077;-74
2023/09/02 04:26:26;;;;;;;0.60;0.60;;;13.10;99.90;;;;;;4418520;32;20122;-74
2023/09/02 04:28:55;;;;;;;0.93;0.60;;;13.10;99.90;;;;;;4427397;32;20078;-74
2023/09/02 04:31:21;;;;;;;0.82;0.82;;;13.20;99.90;;;;;;4429929;32;20089;-73
2023/09/02 04:33:46;;;;;;;0.65;0.60;;;13.20;99.90;;;;;;4430350;32;20698;-74
2023/09/02 04:36:12;;;;;;;0.60;0.60;;;13.10;99.90;;;;;;4432323;32;20085;-73
2023/09/02 04:38:37;;;;;;;0.50;0.50;;;13.10;99.90;;;;;;4432568;32;20077;-73
2023/09/02 04:41:06;;;;;;;0.70;0.70;;;13.00;99.90;;;;;;4430173;32;20534;-73
2023/09/02 04:43:32;;;;;;;0.93;0.50;;;13.00;99.90;;;;;;4429949;32;20089;-73
2023/09/02 04:46:02;;;;;;;3.60;0.82;;;13.10;99.90;;;;;;4431188;32;20105;-73
2023/09/02 04:48:28;;;;;;;0.62;0.62;;;13.10;99.90;;;;;;4432251;32;20086;-73
2023/09/02 04:50:54;;;;;;;0.60;0.60;;;13.20;99.90;;;;;;4424921;32;20124;-74
2023/09/02 04:53:20;;;;;;;2.37;0.60;;;13.20;99.90;;;;;;4424149;32;20137;-73
2023/09/02 04:55:47;;;;;;;0.50;0.50;;;13.20;99.90;;;;;;4425132;32;20089;-73
2023/09/02 04:58:13;;;;;;;0.60;0.60;;;13.20;99.90;;;;;;4425772;32;20049;-72
2023/09/02 05:00:38;;;;;;;1.12;0.75;;;13.30;99.90;;;;;;4426427;32;20125;-73
2023/09/02 05:03:05;;;;;;;0.88;0.70;;;13.30;99.90;;;;;;4425135;32;20061;-73
2023/09/02 05:05:31;;;;;;;0.60;0.60;;;13.30;99.90;;;;;;4422613;32;20135;-73
2023/09/02 05:07:57;;;;;;;0.60;0.60;;;13.40;99.90;;;;;;4419944;32;20085;-73
2023/09/02 05:10:23;;;;;;;1.45;0.75;;;13.40;99.90;;;;;;4413167;32;21585;-72
2023/09/02 05:12:49;;;;;;;1.17;0.62;;;13.40;99.90;;;;;;4413272;32;20094;-74
2023/09/02 05:15:14;;;;;;;0.70;0.70;;;13.50;99.90;;;;;;4414445;32;20135;-73
2023/09/02 05:17:40;;;;;;;0.80;0.77;;;13.40;99.90;;;;;;4413767;32;20093;-74
2023/09/02 05:20:06;;;;;;;1.15;0.73;;;13.40;99.90;;;;;;4414718;32;20065;-73
2023/09/02 05:22:33;;;;;;;0.50;0.50;;;13.40;99.90;;;;;;4414076;32;20078;-73
2023/09/02 05:24:58;;;;;;;0.52;0.52;;;13.50;99.90;;;;;;4412496;32;20110;-73
2023/09/02 05:27:24;;;;;;;0.57;0.57;;;13.60;99.90;;;;;;4411389;32;20089;-73
2023/09/02 05:29:49;;;;;;;0.70;0.70;;;13.70;99.90;;;;;;4414555;32;20545;-73
2023/09/02 05:32:16;;;;;;;0.80;0.80;;;13.80;99.90;;;;;;4411061;32;20173;-73
2023/09/02 05:34:41;;;;;;;0.55;0.50;;;13.90;99.90;;;;;;4410978;32;20062;-72
2023/09/02 05:37:07;;;;;;;0.50;0.50;;;13.90;99.90;;;;;;4414903;32;20098;-74
2023/09/02 05:39:33;;;;;;;0.70;0.70;;;13.90;99.90;;;;;;4415170;32;20062;-74
2023/09/02 05:41:58;;;;;;;0.52;0.50;;;14.00;99.90;;;;;;4412978;32;20065;-74
2023/09/02 05:44:24;;;;;;;1.05;0.80;;;14.10;99.90;;;;;;4415913;32;20069;-74
2023/09/02 05:46:50;;;;;;;0.50;0.50;;;14.20;99.90;;;;;;4408582;32;20093;-74
2023/09/02 05:49:15;;;;;;;2.67;0.80;;;14.40;99.90;;;;;;4413540;32;20114;-74
2023/09/02 05:51:41;;;;;;;0.57;0.57;;;14.40;99.90;;;;;;4416982;32;20152;-74
2023/09/02 05:54:09;;;;;;;0.60;0.60;;;14.40;99.90;;;;;;4418939;32;20101;-75
2023/09/02 05:56:35;;;;;;;0.70;0.70;;;14.40;99.90;;;;;;4421284;32;20209;-74
2023/09/02 05:59:00;;;;;;;0.62;0.62;;;14.50;99.90;;;;;;4419736;32;20097;-74
2023/09/02 06:01:26;;;;;;;0.82;0.80;;;14.60;99.90;;;;;;4421790;32;20156;-74
2023/09/02 06:03:51;;;;;;;0.62;0.62;;;14.60;99.90;;;;;;4421475;32;20097;-74
2023/09/02 06:06:17;;;;;;;2.42;0.98;;;14.60;99.90;;;;;;4421196;32;20862;-74
2023/09/02 06:08:42;;;;;;;0.88;0.70;;;14.70;99.90;;;;;;4418317;32;20513;-74
2023/09/02 06:11:08;;;;;;;1.37;0.80;;;14.80;99.90;;;;;;4423190;32;20065;-74
2023/09/02 06:13:34;;;;;;;0.57;0.57;;;14.90;99.90;;;;;;4422333;32;20089;-74
2023/09/02 06:16:01;;;;;;;1.60;1.30;;;15.00;99.90;;;;;;4422578;32;20504;-75
2023/09/02 06:18:28;;;;;;;2.05;1.05;;;15.00;99.90;;;;;;4426005;32;20097;-74
2023/09/02 06:20:53;;;;;;;0.75;0.75;;;15.10;99.90;;;;;;4430191;32;20069;-74
2023/09/02 06:23:19;;;;;;;0.93;0.70;;;15.10;99.90;;;;;;4427303;32;20162;-73
2023/09/02 06:25:45;;;;;;;0.82;0.62;;;15.20;99.90;;;;;;4429362;32;20089;-73
2023/09/02 06:28:10;;;;;;;1.50;1.05;;;15.20;99.90;;;;;;4425157;32;20129;-74
2023/09/02 06:30:36;;;;;;;0.70;0.70;;;15.30;99.90;;;;;;4423529;32;20153;-73
2023/09/02 06:33:03;;;;;;;1.08;0.98;;;15.40;99.90;;;;;;4422937;32;20065;-73
2023/09/02 06:35:30;;;;;;;0.52;0.52;;;15.50;99.90;;;;;;4420657;32;20073;-73
2023/09/02 06:37:55;;;;;;;1.08;0.70;;;15.60;99.90;;;;;;4422047;32;20114;-73
2023/09/02 06:40:21;;;;;;;1.62;0.82;;;15.60;99.90;;;;;;4423329;32;20078;-73
2023/09/02 06:42:46;;;;;;;0.40;0.40;;;15.70;99.90;;;;;;4419879;32;20196;-73
2023/09/02 06:45:12;;;;;;;0.60;0.35;;;15.80;99.90;;;;;;4421758;32;20082;-74
2023/09/02 06:47:37;;;;;;;0.50;0.50;;;15.80;99.90;;;;;;4422593;32;20065;-74
2023/09/02 06:50:03;;;;;;;0.57;0.57;;;15.90;99.90;;;;;;4416197;32;20565;-75
2023/09/02 06:52:29;;;;;;;14.02;1.77;;;15.90;99.90;;;;;;4413974;32;20066;-74
2023/09/02 06:54:54;;;;;;;0.40;0.40;;;16.00;99.90;;;;;;4411535;32;20124;-75
2023/09/02 06:57:20;;;;;;;1.20;0.80;;;16.10;99.90;;;;;;4411808;32;20430;-75
2023/09/02 06:59:45;;;;;;;10.23;0.60;;;16.20;99.90;;;;;;4413684;32;20098;-75
2023/09/02 07:02:11;;;;;;;0.52;0.50;;;16.30;99.90;;;;;;4415279;32;20086;-75
2023/09/02 07:04:36;;;;;;;0.70;0.70;;;16.40;99.90;;;;;;4414526;32;20174;-75
2023/09/02 07:07:02;;;;;;;0.50;0.50;;;16.50;99.90;;;;;;4411256;32;20070;-75
2023/09/02 07:09:27;;;;;;;0.50;0.50;;;16.50;99.90;;;;;;4412569;32;20070;-75
2023/09/02 07:11:53;;;;;;;0.50;0.50;;;16.60;99.90;;;;;;4411094;32;20085;-75
2023/09/02 07:14:18;;;;;;;0.40;0.40;;;16.70;99.90;;;;;;4412324;32;20508;-75
2023/09/02 07:16:44;;;;;;;9.18;0.73;;;16.70;99.90;;;;;;4414167;32;20093;-75
2023/09/02 07:19:09;;;;;;;0.40;0.40;;;16.70;99.90;;;;;;4411792;32;20097;-75
2023/09/02 07:21:35;;;;;;;0.60;0.60;;;16.70;99.90;;;;;;4413416;32;20078;-75
2023/09/02 07:24:00;;;;;;;0.40;0.40;;;16.80;99.90;;;;;;4411511;32;20100;-75
2023/09/02 07:26:28;;;;;;;0.65;0.65;;;16.90;99.90;;;;;;4411861;32;20156;-75
2023/09/02 07:28:54;;;;;;;0.50;0.50;;;17.00;99.90;;;;;;4411226;32;20664;-75
2023/09/02 07:31:20;;;;;;;0.47;0.47;;;17.10;99.90;;;;;;4412762;32;20365;-75
2023/09/02 07:33:45;;;;;;;0.70;0.70;;;17.10;99.90;;;;;;4412169;32;20113;-75
2023/09/02 07:36:12;;;;;;;0.62;0.62;;;17.10;99.90;;;;;;4409045;32;20577;-75
2023/09/02 07:38:40;;;;;;;0.40;0.40;;;17.20;99.90;;;;;;4411019;32;20119;-75
2023/09/02 07:41:06;;;;;;;0.45;0.45;;;17.20;99.90;;;;;;4410863;32;20844;-73
2023/09/02 07:43:32;;;;;;;1.55;0.75;;;17.30;99.90;;;;;;4413031;32;20061;-74
2023/09/02 07:45:57;;;;;;;0.57;0.57;;;17.30;99.90;;;;;;4414966;32;20061;-74
2023/09/02 07:48:23;;;;;;;0.45;0.45;;;17.40;99.90;;;;;;4414669;32;20065;-74
2023/09/02 07:50:48;;;;;;;0.32;0.32;;;17.50;99.90;;;;;;4415556;32;20415;-73
2023/09/02 07:53:14;;;;;;;0.60;0.60;;;17.60;99.90;;;;;;4410890;32;20085;-73
2023/09/02 07:55:40;;;;;;;0.40;0.40;;;17.70;99.90;;;;;;4413750;32;20110;-74
2023/09/02 07:58:05;;;;;;;0.47;0.47;;;17.70;99.90;;;;;;4415448;32;20512;-74
2023/09/02 08:00:35;;;;;;;0.30;0.30;;;17.80;99.90;;;;;;4410384;32;20139;-74
2023/09/02 08:03:02;;;;;;;0.40;0.40;;;17.80;99.90;;;;;;4414776;32;20601;-75
2023/09/02 08:05:27;;;;;;;1.73;0.82;;;17.90;99.90;;;;;;4411752;32;20504;-74
2023/09/02 08:07:54;;;;;;;0.55;0.55;;;18.00;99.90;;;;;;4412933;32;20109;-75
2023/09/02 08:10:19;;;;;;;0.62;0.62;;;18.10;99.90;;;;;;4411958;32;20535;-74
2023/09/02 08:12:45;;;;;;;0.47;0.47;;;18.20;99.90;;;;;;4412068;32;20073;-71
2023/09/02 08:15:11;;;;;;;0.47;0.47;;;18.20;99.90;;;;;;4409729;32;20573;-75
2023/09/02 08:17:38;;;;;;;0.73;0.73;;;18.20;99.90;;;;;;4409685;32;20521;-73
2023/09/02 08:20:05;;;;;;;1.05;0.93;;;18.40;99.90;;;;;;4413065;32;20070;-74
2023/09/02 08:22:30;;;;;;;0.50;0.50;;;18.40;99.90;;;;;;4413402;32;20093;-74
2023/09/02 08:24:56;;;;;;;0.40;0.40;;;18.60;99.90;;;;;;4410922;32;20113;-74
2023/09/02 08:27:21;;;;;;;0.40;0.40;;;18.70;99.90;;;;;;4412279;32;20097;-73
2023/09/02 08:29:47;;;;;;;5.03;1.10;;;18.70;99.90;;;;;;4410672;32;20116;-73
2023/09/02 08:32:12;;;;;;;0.50;0.43;;;18.80;99.90;;;;;;4409423;32;20082;-74
2023/09/02 08:34:38;;;;;;;0.20;0.20;;;18.80;99.90;;;;;;4411784;32;20346;-74
2023/09/02 08:37:03;;;;;;;0.37;0.37;;;18.90;99.90;;;;;;4409428;32;20069;-74
2023/09/02 08:39:29;;;;;;;1.85;0.65;;;19.00;99.90;;;;;;4410639;32;20062;-73
2023/09/02 08:41:55;;;;;;;0.30;0.30;;;19.10;99.90;;;;;;4411706;32;20101;-74
2023/09/02 08:44:25;;;;;;;0.35;0.35;;;19.10;99.90;;;;;;4409279;32;20101;-73
2023/09/02 08:46:52;;;;;;;2.40;1.40;;;19.30;99.90;;;;;;4410675;32;20073;-74
2023/09/02 08:49:19;;;;;;;0.85;0.50;;;19.40;99.90;;;;;;4413450;32;20070;-74
2023/09/02 08:51:46;;;;;;;0.30;0.30;;;19.50;99.90;;;;;;4417940;32;20415;-75
2023/09/02 08:54:13;;;;;;;0.68;0.50;;;19.60;99.90;;;;;;4416209;32;20069;-75
2023/09/02 08:56:41;;;;;;;1.05;0.60;;;19.60;99.90;;;;;;4416259;32;20461;-74
2023/09/02 08:59:09;;;;;;;0.43;0.40;;;19.70;99.90;;;;;;4417525;32;20482;-75
2023/09/02 09:01:42;;;;;;;0.73;0.50;;;19.80;99.90;;;;;;4417765;32;20065;-75
2023/09/02 09:04:08;;;;;;;0.30;0.30;;;19.90;99.90;;;;;;4417830;32;20560;-75
2023/09/02 09:06:36;;;;;;;1.37;0.40;;;19.90;99.90;;;;;;4417235;32;20074;-74
2023/09/02 09:09:02;;;;;;;3.03;0.55;;;19.90;99.90;;;;;;4417140;32;20541;-73
2023/09/02 09:11:31;;;;;;;0.30;0.30;;;20.00;99.90;;;;;;4416849;32;20065;-73
2023/09/02 09:14:01;;;;;;;0.57;0.57;;;20.20;99.90;;;;;;4417056;32;20619;-73
2023/09/02 09:16:31;;;;;;;0.32;0.32;;;20.30;99.90;;;;;;4416753;32;20101;-74
2023/09/02 09:18:57;;;;;;;0.30;0.30;;;20.40;99.90;;;;;;4418422;32;20061;-73
2023/09/02 09:21:23;;;;;;;0.30;0.30;;;20.50;99.90;;;;;;4420028;32;20139;-73
2023/09/02 09:23:48;;;;;;;0.30;0.30;;;20.60;99.90;;;;;;4419931;32;20654;-73
2023/09/02 09:26:14;;;;;;;0.50;0.50;;;20.70;99.90;;;;;;4417696;32;20089;-74
2023/09/02 09:28:58;;;;;;;0.45;0.45;;;20.80;99.90;;;;;;4419454;32;20077;-73
2023/09/02 09:31:25;;;;;;;0.40;0.40;;;21.00;99.90;;;;;;4405574;32;20122;-74
2023/09/02 09:33:53;;;;;;;0.32;0.32;;;20.90;99.90;;;;;;4419551;32;20106;-73
2023/09/02 09:36:21;;;;;;;0.28;0.28;;;20.90;99.90;;;;;;4421303;32;21178;-73
2023/09/02 09:38:48;;;;;;;0.30;0.30;;;21.00;99.90;;;;;;4420387;32;20077;-74
2023/09/02 09:41:13;;;;;;;0.50;0.43;;;21.20;99.90;;;;;;4422106;32;20597;-72
2023/09/02 09:43:39;;;;;;;0.45;0.45;;;21.20;99.90;;;;;;4422086;32;20093;-74
2023/09/02 09:46:04;;;;;;;2.97;0.70;;;21.00;99.90;;;;;;4421155;32;20069;-74
2023/09/02 09:48:30;;;;;;;0.20;0.20;;;20.90;99.90;;;;;;4418800;32;20167;-74
2023/09/02 09:50:56;;;;;;;0.50;0.50;;;21.00;99.90;;;;;;4421554;32;20109;-72
2023/09/02 09:53:21;;;;;;;0.88;0.47;;;20.90;99.90;;;;;;4420216;32;20096;-73
2023/09/02 09:55:47;;;;;;;0.75;0.52;;;20.90;99.90;;;;;;4420383;32;21034;-73
2023/09/02 09:58:22;;;;;;;0.65;0.65;;;20.90;99.90;;;;;;4421556;32;20074;-73
2023/09/02 10:00:52;;;;;;;0.20;0.20;;;20.90;99.90;;;;;;4421051;32;20077;-74
2023/09/02 10:03:28;;;;;;;0.55;0.52;;;20.90;99.90;;;;;;4423213;32;20086;-73
2023/09/02 10:05:59;;;;;;;0.22;0.22;;;20.70;99.90;;;;;;4422780;32;20176;-73
2023/09/02 10:08:24;;;;;;;2.30;0.62;;;20.80;99.90;;;;;;4421572;32;20101;-73
2023/09/02 10:10:49;;;;;;;1.75;0.50;;;20.90;99.90;;;;;;4421283;32;20105;-73
2023/09/02 10:13:15;;;;;;;0.55;0.55;;;20.90;99.90;;;;;;4420870;32;20888;-73
2023/09/02 10:15:42;;;;;;;0.40;0.40;;;20.90;99.90;;;;;;4419563;32;20094;-74
2023/09/02 10:18:07;;;;;;;0.82;0.60;;;20.80;99.90;;;;;;4420675;32;20430;-74
2023/09/02 10:20:35;;;;;;;0.60;0.60;;;20.70;99.90;;;;;;4419383;32;20093;-75
2023/09/02 10:23:05;;;;;;;0.40;0.40;;;20.70;99.90;;;;;;4420501;32;20128;-75
2023/09/02 10:25:40;;;;;;;0.30;0.30;;;20.70;99.90;;;;;;4419311;32;20082;-75
2023/09/02 10:28:11;;;;;;;0.47;0.47;;;20.70;99.90;;;;;;4421110;32;20069;-74
2023/09/02 10:30:43;;;;;;;0.55;0.50;;;20.90;99.90;;;;;;4428881;32;20080;-74
2023/09/02 10:33:33;;;;;;;0.30;0.30;;;21.10;99.90;;;;;;4428730;32;20070;-73
2023/09/02 10:36:01;;;;;;;1.42;0.50;;;21.40;99.90;;;;;;4433977;32;20094;-72
2023/09/02 10:38:31;;;;;;;0.73;0.73;;;21.60;99.90;;;;;;4424194;32;20109;-74
2023/09/02 10:41:16;;;;;;;0.22;0.22;;;21.80;99.90;;;;;;4419368;32;20408;-74
2023/09/02 10:43:44;;;;;;;0.30;0.30;;;22.00;99.90;;;;;;4402532;32;20187;-74
2023/09/02 10:46:10;;;;;;;0.30;0.30;;;22.50;99.90;;;;;;4420717;32;20608;-74
2023/09/02 10:48:39;;;;;;;0.30;0.30;;;22.70;99.90;;;;;;4419820;32;20092;-74
2023/09/02 10:51:05;;;;;;;0.30;0.30;;;22.80;99.90;;;;;;4420756;32;20083;-74
2023/09/02 10:53:52;;;;;;;1.02;0.93;;;22.70;99.90;;;;;;4418914;32;20104;-74
2023/09/02 10:56:26;;;;;;;0.40;0.40;;;22.60;99.90;;;;;;4406468;32;20754;-75
2023/09/02 10:58:52;;;;;;;2.83;0.50;;;22.50;99.90;;;;;;4417839;32;20097;-74
2023/09/02 11:01:18;;;;;;;0.75;0.45;;;22.30;99.90;;;;;;4419451;32;20098;-75
2023/09/02 11:03:47;;;;;;;0.50;0.45;;;22.20;99.90;;;;;;4419356;32;20093;-74
2023/09/02 11:06:15;;;;;;;1.73;0.57;;;22.00;99.90;;;;;;4419291;32;20112;-74
2023/09/02 11:08:44;;;;;;;0.30;0.30;;;21.90;99.90;;;;;;4419874;32;20555;-74
2023/09/02 11:11:10;;;;;;;0.30;0.30;;;22.00;99.90;;;;;;4418956;32;20102;-74
2023/09/02 11:14:15;;;;;;;0.30;0.30;;;22.30;99.90;;;;;;4417149;32;20094;-74
2023/09/02 11:16:42;;;;;;;22.98;0.70;;;22.50;99.90;;;;;;4399078;32;20089;-74
2023/09/02 11:19:08;;;;;;;0.28;0.28;;;22.60;99.90;;;;;;4420285;32;20082;-74
2023/09/02 11:21:38;;;;;;;0.40;0.40;;;23.00;99.90;;;;;;4418210;32;20085;-75
2023/09/02 11:24:21;;;;;;;0.20;0.20;;;23.40;99.90;;;;;;4418650;32;20425;-74
2023/09/02 11:26:55;;;;;;;0.35;0.28;;;23.80;99.90;;;;;;4420011;32;20152;-74
2023/09/02 11:29:22;;;;;;;0.22;0.22;;;24.20;99.90;;;;;;4420165;32;20097;-75
2023/09/02 11:32:04;;;;;;;1.10;0.43;;;24.00;99.90;;;;;;4420989;32;20868;-75
2023/09/02 11:34:30;;;;;;;0.30;0.30;;;23.50;99.90;;;;;;4418189;32;20089;-74
2023/09/02 11:36:58;;;;;;;0.20;0.20;;;23.20;99.90;;;;;;4419330;32;20139;-74
2023/09/02 11:39:25;;;;;;;0.90;0.50;;;22.90;99.90;;;;;;4418124;32;20085;-74
2023/09/02 11:42:05;;;;;;;0.40;0.37;;;22.60;99.90;;;;;;4418228;32;20192;-74
2023/09/02 11:44:31;;;;;;;0.35;0.35;;;22.40;99.90;;;;;;4418616;32;20109;-74
2023/09/02 11:46:56;;;;;;;0.20;0.20;;;22.30;99.90;;;;;;4415455;32;104239;-74
2023/09/02 11:49:23;;;;;;;0.40;0.40;;;22.10;99.90;;;;;;4422480;32;20089;-73
2023/09/02 11:51:49;;;;;;;0.52;0.52;;;22.00;99.90;;;;;;4418337;32;20106;-73
2023/09/02 11:54:16;;;;;;;0.75;0.52;;;21.80;99.90;;;;;;4418547;32;20054;-73
2023/09/02 11:56:41;;;;;;;0.90;0.73;;;21.70;99.90;;;;;;4417824;32;20077;-72
2023/09/02 11:59:21;;;;;;;0.37;0.37;;;21.70;99.90;;;;;;4418184;32;20419;-73
2023/09/02 12:01:46;;;;;;;0.45;0.45;;;21.90;99.90;;;;;;4417969;32;20062;-73
2023/09/02 12:04:12;;;;;;;0.20;0.20;;;22.60;99.90;;;;;;4418816;32;20074;-74
2023/09/02 12:06:37;;;;;;;0.20;0.20;;;23.60;99.90;;;;;;4416585;32;20394;-74
2023/09/02 12:09:03;;;;;;;0.40;0.40;;;24.20;99.90;;;;;;4417476;32;21298;-74
2023/09/02 12:11:29;;;;;;;0.30;0.30;;;24.20;99.90;;;;;;4417723;32;20073;-73
2023/09/02 12:13:54;;;;;;;0.43;0.43;;;24.40;99.90;;;;;;4413609;32;20130;-74
2023/09/02 12:16:22;;;;;;;0.20;0.20;;;24.20;99.90;;;;;;4417840;32;20129;-74
2023/09/02 12:18:48;;;;;;;0.20;0.20;;;24.20;99.90;;;;;;4417927;32;20084;-73
2023/09/02 12:21:13;;;;;;;3.60;0.32;;;24.10;99.90;;;;;;4419660;32;20081;-73
2023/09/02 12:23:39;;;;;;;1.35;0.80;;;23.80;99.90;;;;;;4418207;32;20085;-73
2023/09/02 12:26:07;;;;;;;0.30;0.30;;;23.50;99.90;;;;;;4418364;32;20116;-73
2023/09/02 12:28:33;;;;;;;0.37;0.37;;;23.20;99.90;;;;;;4418655;32;20077;-73
2023/09/02 12:30:58;;;;;;;0.30;0.30;;;23.00;99.90;;;;;;4417555;32;20061;-73
2023/09/02 12:33:25;;;;;;;2.05;0.50;;;22.80;99.90;;;;;;4418998;32;20100;-73
2023/09/02 12:35:50;;;;;;;0.20;0.20;;;22.60;99.90;;;;;;4417107;32;20101;-73
2023/09/02 12:38:19;;;;;;;0.37;0.37;;;22.30;99.90;;;;;;4416415;32;20080;-73
2023/09/02 12:40:53;;;;;;;1.98;0.50;;;22.00;99.90;;;;;;4416557;32;20160;-73
2023/09/02 12:43:24;;;;;;;0.25;0.25;;;21.90;99.90;;;;;;4418079;32;20066;-73
2023/09/02 12:45:51;;;;;;;;;;;21.80;99.90;;;;;;4420184;32;20511;-73
2023/09/02 12:48:17;;;;;;;0.22;0.22;;;21.80;99.90;;;;;;4418487;32;20416;-73